createdAt,value
2017-09-29T00:00:29.550Z,2.95
2017-09-29T00:10:06.686Z,2.95
2017-09-29T00:19:43.806Z,2.95
2017-09-29T00:29:20.840Z,2.95
2017-09-29T00:38:57.799Z,2.95
2017-09-29T00:48:34.390Z,2.95
2017-09-29T00:58:12.168Z,2.95
2017-09-29T01:07:48.732Z,2.95
2017-09-29T01:17:25.724Z,2.95
2017-09-29T01:27:02.986Z,2.95
2017-09-29T01:36:39.875Z,2.95
2017-09-29T01:46:17.077Z,2.94
2017-09-29T01:55:53.801Z,2.94
2017-09-29T02:05:32.040Z,2.94
2017-09-29T02:15:08.757Z,2.94
2017-09-29T02:24:50.060Z,2.94
2017-09-29T02:34:21.191Z,2.94
2017-09-29T02:43:57.707Z,2.94
2017-09-29T02:53:34.850Z,2.94
2017-09-29T03:03:11.475Z,2.94
2017-09-29T03:12:52.474Z,2.95
2017-09-29T03:22:24.785Z,2.94
2017-09-29T03:32:01.980Z,2.94
2017-09-29T03:41:43.258Z,2.94
2017-09-29T03:51:18.599Z,2.94
2017-09-29T04:00:49.930Z,2.94
2017-09-29T04:10:31.406Z,2.94
2017-09-29T04:20:03.042Z,2.94
2017-09-29T04:29:40.593Z,2.94
2017-09-29T04:39:17.254Z,2.94
2017-09-29T04:48:55.707Z,2.94
2017-09-29T04:58:36.885Z,2.94
2017-09-29T05:08:12.235Z,2.94
2017-09-29T05:17:43.765Z,2.94
2017-09-29T05:27:20.613Z,2.94
2017-09-29T05:36:59.204Z,2.94
2017-09-29T05:46:36.404Z,2.94
2017-09-29T05:56:14.676Z,2.94
2017-09-29T06:05:53.347Z,2.94
2017-09-29T06:15:31.041Z,2.94
2017-09-29T06:25:08.768Z,2.94
2017-09-29T06:34:47.717Z,2.94
2017-09-29T06:44:25.984Z,2.94
2017-09-29T06:54:03.833Z,2.94
2017-09-29T07:03:42.311Z,2.94
2017-09-29T07:13:20.802Z,2.94
2017-09-29T07:22:58.228Z,2.94
2017-09-29T07:32:35.658Z,2.95
2017-09-29T07:42:15.071Z,2.95
2017-09-29T07:51:53.481Z,2.95
2017-09-29T08:01:31.349Z,2.95
2017-09-29T08:11:09.282Z,2.95
2017-09-29T08:20:48.313Z,2.95
2017-09-29T08:30:26.452Z,2.95
2017-09-29T08:40:05.398Z,2.95
2017-09-29T08:49:43.639Z,2.95
2017-09-29T08:59:21.782Z,2.95
2017-09-29T09:09:03.975Z,2.95
2017-09-29T09:18:36.460Z,2.95
2017-09-29T09:28:14.705Z,2.96
2017-09-29T09:37:51.945Z,2.96
2017-09-29T09:47:31.175Z,2.96
2017-09-29T09:57:09.134Z,2.96
2017-09-29T10:06:48.662Z,2.96
2017-09-29T10:16:26.871Z,2.96
2017-09-29T10:26:06.415Z,2.96
2017-09-29T10:35:45.561Z,2.96
2017-09-29T10:45:24.771Z,2.96
2017-09-29T10:55:02.464Z,2.96
2017-09-29T11:04:40.135Z,2.96
2017-09-29T11:14:18.166Z,2.96
2017-09-29T11:23:55.449Z,2.96
2017-09-29T11:33:35.293Z,2.96
2017-09-29T11:43:11.965Z,2.96
2017-09-29T11:52:50.136Z,2.96
2017-09-29T12:02:29.099Z,2.96
2017-09-29T12:12:05.934Z,2.96
2017-09-29T12:21:43.447Z,2.96
2017-09-29T12:31:21.086Z,2.96
2017-09-29T12:41:00.611Z,2.96
2017-09-29T12:50:36.740Z,2.82
2017-09-29T13:00:18.088Z,2.96
2017-09-29T13:09:53.022Z,2.96
2017-09-29T13:19:39.389Z,2.96
2017-09-29T13:29:14.844Z,2.96
2017-09-29T13:38:56.281Z,2.96
2017-09-29T13:48:31.279Z,2.96
2017-09-29T13:58:12.895Z,2.96
2017-09-29T14:07:47.444Z,2.96
2017-09-29T14:17:22.368Z,2.96
2017-09-29T14:27:00.071Z,2.96
2017-09-29T14:36:37.019Z,2.95
2017-09-29T14:46:12.845Z,3.17
2017-09-29T14:55:48.313Z,3.17
2017-09-29T15:05:26.995Z,3.18
2017-09-29T15:14:55.839Z,3.17
2017-09-29T15:24:31.478Z,3.17
2017-09-29T15:34:06.941Z,3.17
2017-09-29T15:43:41.981Z,3.18
2017-09-29T15:53:17.133Z,3.17
2017-09-29T16:02:52.468Z,3.18
2017-09-29T16:12:28.104Z,3.17
2017-09-29T16:22:03.146Z,3.17
2017-09-29T16:31:42.166Z,3.18
2017-09-29T16:41:11.537Z,3.17
2017-09-29T16:50:49.994Z,3.17
2017-09-29T17:00:23.523Z,3.18
2017-09-29T17:09:52.642Z,3.18
2017-09-29T17:19:28.365Z,3.18
2017-09-29T17:29:04.350Z,3.17
2017-09-29T17:38:43.590Z,3.09
2017-09-29T17:48:19.095Z,3.09
2017-09-29T17:57:53.660Z,3.09
2017-09-29T18:07:29.659Z,3.08
2017-09-29T18:17:05.466Z,3.08
2017-09-29T18:26:45.547Z,3.08
2017-09-29T18:36:15.591Z,3.08
2017-09-29T18:45:52.833Z,3.08
2017-09-29T18:55:28.606Z,3.08
2017-09-29T19:05:05.547Z,3.08
2017-09-29T19:14:41.377Z,3.08
2017-09-29T19:24:18.645Z,3.08
2017-09-29T19:33:55.090Z,3.08
2017-09-29T19:43:31.433Z,3.08
2017-09-29T19:53:07.735Z,3.08
2017-09-29T20:02:43.592Z,3.08
2017-09-29T20:12:23.838Z,3.08
2017-09-29T20:21:54.286Z,3.07
2017-09-29T20:31:30.730Z,3.07
2017-09-29T20:41:06.989Z,3.07
2017-09-29T20:50:44.282Z,3.07
2017-09-29T21:00:20.129Z,3.07
2017-09-29T21:09:56.623Z,3.07
2017-09-29T21:19:32.348Z,3.07
2017-09-29T21:29:08.601Z,3.07
2017-09-29T21:38:49.213Z,3.07
2017-09-29T21:48:23.390Z,3.07
2017-09-29T21:57:53.731Z,3.06
2017-09-29T22:07:29.534Z,3.06
2017-09-29T22:17:10.714Z,3.06
2017-09-29T22:26:39.939Z,3.06
2017-09-29T22:36:16.043Z,3.06
2017-09-29T22:45:52.523Z,3.06
2017-09-29T22:55:28.895Z,3.06
2017-09-29T23:05:05.339Z,3.06
2017-09-29T23:14:41.619Z,3.06
2017-09-29T23:24:18.169Z,3.06
2017-09-29T23:33:54.441Z,3.06
2017-09-29T23:43:30.717Z,3.06
2017-09-29T23:53:06.904Z,3.06
